createdAt,value
2019-05-02T00:03:41.181Z,42.62
2019-05-02T00:08:45.743Z,42.03
2019-05-02T00:13:52.795Z,41.77
2019-05-02T00:18:59.375Z,43.38
2019-05-02T00:24:04.911Z,43.60
2019-05-02T00:29:10.511Z,43.70
2019-05-02T00:34:15.647Z,44.55
2019-05-02T00:39:20.719Z,43.03
2019-05-02T00:44:25.761Z,43.55
2019-05-02T00:49:35.516Z,44.55
2019-05-02T00:54:38.869Z,45.13
2019-05-02T00:59:44.819Z,44.35
2019-05-02T01:04:50.399Z,45.00
2019-05-02T01:09:55.457Z,45.83
2019-05-02T01:15:03.349Z,44.30
2019-05-02T01:20:07.681Z,46.55
2019-05-02T01:25:16.966Z,46.60
2019-05-02T01:30:45.164Z,46.30
2019-05-02T01:36:06.438Z,49.08
2019-05-02T01:41:12.421Z,49.47
2019-05-02T01:46:22.325Z,47.60
2019-05-02T01:51:24.236Z,48.60
2019-05-02T01:56:33.061Z,47.13
2019-05-02T02:01:37.686Z,47.48
2019-05-02T02:06:44.887Z,45.95
2019-05-02T02:11:50.977Z,48.85
2019-05-02T02:16:56.931Z,46.27
2019-05-02T02:22:09.128Z,46.45
2019-05-02T02:27:14.825Z,45.92
2019-05-02T02:32:26.632Z,47.35
2019-05-02T02:37:26.978Z,46.35
2019-05-02T02:42:34.201Z,47.75
2019-05-02T02:47:39.368Z,47.05
2019-05-02T02:52:46.915Z,45.37
2019-05-02T02:57:51.275Z,46.70
2019-05-02T03:02:57.248Z,47.98
2019-05-02T03:08:05.466Z,47.95
2019-05-02T03:13:27.000Z,48.20
2019-05-02T03:18:39.510Z,47.80
2019-05-02T03:23:39.575Z,49.50
2019-05-02T03:28:45.121Z,47.70
2019-05-02T03:33:59.131Z,47.00
2019-05-02T03:38:57.669Z,50.43
2019-05-02T03:44:11.233Z,48.70
2019-05-02T03:49:10.509Z,48.15
2019-05-02T03:54:19.880Z,47.87
2019-05-02T03:59:39.239Z,48.87
2019-05-02T04:04:44.305Z,49.20
2019-05-02T04:09:49.426Z,51.87
2019-05-02T04:14:56.053Z,50.30
2019-05-02T04:20:09.255Z,54.27
2019-05-02T04:25:09.047Z,53.23
2019-05-02T04:30:14.527Z,53.17
2019-05-02T04:35:19.661Z,52.10
2019-05-02T04:40:49.723Z,55.10
2019-05-02T04:45:57.450Z,57.58
2019-05-02T04:51:10.110Z,58.78
2019-05-02T04:56:10.606Z,49.27
2019-05-02T05:01:16.615Z,48.80
2019-05-02T05:06:24.040Z,49.67
2019-05-02T05:11:44.208Z,51.13
2019-05-02T05:16:51.745Z,51.17
2019-05-02T05:22:04.359Z,43.20
2019-05-02T05:27:03.368Z,42.23
2019-05-02T05:32:10.140Z,43.70
2019-05-02T05:37:17.271Z,45.47
2019-05-02T05:42:23.293Z,43.20
2019-05-02T05:47:31.745Z,45.80
2019-05-02T05:52:42.461Z,45.97
2019-05-02T05:57:49.977Z,43.60
2019-05-02T06:03:01.198Z,43.60
2019-05-02T06:08:02.534Z,44.77
2019-05-02T06:13:10.986Z,45.97
2019-05-02T06:18:15.698Z,43.53
2019-05-02T06:23:20.776Z,48.77
2019-05-02T06:28:25.929Z,49.60
2019-05-02T06:33:32.405Z,48.37
2019-05-02T06:38:37.616Z,51.37
2019-05-02T06:43:46.659Z,53.47
2019-05-02T06:48:52.387Z,49.50
2019-05-02T06:53:57.484Z,48.73
2019-05-02T06:59:04.291Z,51.10
2019-05-02T07:04:17.507Z,55.77
2019-05-02T07:09:40.293Z,55.43
2019-05-02T07:14:37.375Z,55.10
2019-05-02T07:19:46.067Z,55.57
2019-05-02T07:24:51.456Z,49.17
2019-05-02T07:29:59.564Z,47.67
2019-05-02T07:35:06.189Z,49.00
2019-05-02T07:40:12.070Z,50.87
2019-05-02T07:45:23.683Z,47.90
2019-05-02T07:50:29.136Z,49.13
2019-05-02T07:55:35.330Z,51.00
2019-05-02T08:00:41.217Z,48.80
2019-05-02T08:05:46.741Z,50.63
2019-05-02T08:10:53.803Z,47.93
2019-05-02T08:16:00.615Z,46.07
2019-05-02T08:21:07.031Z,43.27
2019-05-02T08:26:16.470Z,44.40
2019-05-02T08:31:22.397Z,45.47
2019-05-02T08:36:27.904Z,47.23
2019-05-02T08:41:33.062Z,46.40
2019-05-02T08:46:39.678Z,46.20
2019-05-02T08:51:46.337Z,46.97
2019-05-02T08:56:58.924Z,47.43
2019-05-02T09:02:00.539Z,44.80
2019-05-02T09:07:05.729Z,51.33
2019-05-02T09:12:13.246Z,50.10
2019-05-02T09:17:33.192Z,49.63
2019-05-02T09:22:28.521Z,50.05
2019-05-02T09:27:33.945Z,51.50
2019-05-02T09:32:38.965Z,50.83
2019-05-02T09:37:44.051Z,47.33
2019-05-02T09:42:53.441Z,48.35
2019-05-02T09:48:04.504Z,48.63
2019-05-02T09:53:02.799Z,46.77
2019-05-02T09:58:10.514Z,47.98
2019-05-02T10:03:16.504Z,46.43
2019-05-02T10:08:23.644Z,46.77
2019-05-02T10:13:29.037Z,43.73
2019-05-02T10:18:34.193Z,45.03
2019-05-02T10:23:39.542Z,46.75
2019-05-02T10:28:49.425Z,42.80
2019-05-02T10:33:52.948Z,42.77
2019-05-02T10:38:59.366Z,42.53
2019-05-02T10:44:08.383Z,44.25
2019-05-02T10:49:26.059Z,45.10
2019-05-02T10:54:33.637Z,43.70
2019-05-02T10:59:38.753Z,45.23
2019-05-02T11:04:48.418Z,40.90
2019-05-02T11:09:57.227Z,41.57
2019-05-02T11:15:13.055Z,39.70
2019-05-02T11:20:18.097Z,38.25
2019-05-02T11:25:23.585Z,37.30
2019-05-02T11:30:28.681Z,38.40
2019-05-02T11:35:34.298Z,33.83
2019-05-02T11:40:39.415Z,34.23
2019-05-02T11:45:44.491Z,32.17
2019-05-02T11:50:49.665Z,30.60
2019-05-02T11:55:58.392Z,28.35
2019-05-02T12:01:05.210Z,27.52
2019-05-02T12:06:12.225Z,26.95
2019-05-02T12:11:17.642Z,25.82
2019-05-02T12:16:23.823Z,26.30
2019-05-02T12:21:29.551Z,24.57
2019-05-02T12:26:34.801Z,22.35
2019-05-02T12:31:40.161Z,20.80
2019-05-02T12:36:45.225Z,20.10
2019-05-02T12:41:53.317Z,20.02
2019-05-02T12:46:57.736Z,30.73
2019-05-02T12:52:03.118Z,34.67
2019-05-02T12:57:08.189Z,33.50
2019-05-02T13:02:21.546Z,35.47
2019-05-02T13:07:27.168Z,33.42
2019-05-02T13:12:35.652Z,33.42
2019-05-02T13:17:43.912Z,34.73
2019-05-02T13:23:06.437Z,32.67
2019-05-02T13:28:12.289Z,31.97
2019-05-02T13:33:27.298Z,30.48
2019-05-02T13:38:39.757Z,31.20
2019-05-02T13:43:47.418Z,32.42
2019-05-02T13:48:52.615Z,32.25
2019-05-02T13:54:02.444Z,31.68
2019-05-02T13:59:10.445Z,32.67
2019-05-02T14:04:15.172Z,30.12
2019-05-02T14:09:45.478Z,30.70
2019-05-02T14:14:51.939Z,29.75
2019-05-02T14:20:08.568Z,28.27
2019-05-02T14:25:03.948Z,28.35
2019-05-02T14:30:12.122Z,28.15
2019-05-02T14:35:37.035Z,28.23
2019-05-02T14:41:14.613Z,29.73
2019-05-02T14:46:22.380Z,28.40
2019-05-02T14:51:28.201Z,24.33
2019-05-02T14:56:52.513Z,26.90
2019-05-02T15:02:03.844Z,26.00
2019-05-02T15:07:13.021Z,24.67
2019-05-02T15:12:22.100Z,25.45
2019-05-02T15:17:33.648Z,26.20
2019-05-02T15:22:38.305Z,25.45
2019-05-02T15:27:45.282Z,22.87
2019-05-02T15:33:17.138Z,23.40
2019-05-02T15:38:27.237Z,21.62
2019-05-02T15:43:27.397Z,22.27
2019-05-02T15:48:32.654Z,22.73
2019-05-02T15:54:04.829Z,18.85
2019-05-02T15:59:04.784Z,18.57
2019-05-02T16:04:12.701Z,18.32
2019-05-02T16:09:18.425Z,16.67
2019-05-02T16:14:27.202Z,14.37
2019-05-02T16:19:33.522Z,13.13
2019-05-02T16:24:38.909Z,13.35
2019-05-02T16:29:43.994Z,13.40
2019-05-02T16:34:54.808Z,14.17
2019-05-02T16:39:59.425Z,14.75
2019-05-02T16:45:06.514Z,13.30
2019-05-02T16:50:22.872Z,14.20
2019-05-02T16:55:29.216Z,15.37
2019-05-02T17:00:37.079Z,15.23
2019-05-02T17:05:44.216Z,16.10
2019-05-02T17:10:58.875Z,16.73
2019-05-02T17:16:12.026Z,17.93
2019-05-02T17:21:12.644Z,18.02
2019-05-02T17:26:19.574Z,18.23
2019-05-02T17:31:25.331Z,19.03
2019-05-02T17:36:32.380Z,18.25
2019-05-02T17:41:42.327Z,18.52
2019-05-02T17:46:44.547Z,22.03
2019-05-02T17:52:11.233Z,18.10
2019-05-02T17:57:14.833Z,19.12
2019-05-02T18:02:21.974Z,18.52
2019-05-02T18:07:32.285Z,18.97
2019-05-02T18:12:33.998Z,19.02
2019-05-02T18:17:39.227Z,18.80
2019-05-02T18:22:48.955Z,18.10
2019-05-02T18:27:52.721Z,20.75
2019-05-02T18:33:03.593Z,20.70
2019-05-02T18:38:05.438Z,20.80
2019-05-02T18:43:10.721Z,20.43
2019-05-02T18:48:15.919Z,24.90
2019-05-02T18:53:24.333Z,20.80
2019-05-02T18:58:28.079Z,21.83
2019-05-02T19:03:33.498Z,21.82
2019-05-02T19:08:46.798Z,21.70
2019-05-02T19:13:48.024Z,22.20
2019-05-02T19:18:57.426Z,20.97
2019-05-02T19:24:02.412Z,21.93
2019-05-02T19:29:36.058Z,21.60
2019-05-02T19:34:41.892Z,22.65
2019-05-02T19:39:48.695Z,23.38
2019-05-02T19:44:54.132Z,24.15
2019-05-02T19:49:59.232Z,24.35
2019-05-02T19:55:04.887Z,24.83
2019-05-02T20:00:13.267Z,25.27
2019-05-02T20:05:24.146Z,24.90
2019-05-02T20:10:43.649Z,24.98
2019-05-02T20:15:57.173Z,24.52
2019-05-02T20:21:28.463Z,29.15
2019-05-02T20:26:33.679Z,34.20
2019-05-02T20:31:38.731Z,39.87
2019-05-02T20:36:44.255Z,42.43
2019-05-02T20:42:02.810Z,37.47
2019-05-02T20:47:08.643Z,38.17
2019-05-02T20:52:13.904Z,38.90
2019-05-02T20:57:19.285Z,41.80
2019-05-02T21:02:29.470Z,42.15
2019-05-02T21:07:54.412Z,43.48
2019-05-02T21:13:02.072Z,43.00
2019-05-02T21:18:08.407Z,44.17
2019-05-02T21:23:13.607Z,42.93
2019-05-02T21:28:18.872Z,43.92
2019-05-02T21:33:42.919Z,43.47
2019-05-02T21:38:49.605Z,41.83
2019-05-02T21:43:55.159Z,42.30
2019-05-02T21:49:00.305Z,37.50
2019-05-02T21:54:23.498Z,36.17
2019-05-02T21:59:29.625Z,35.80
2019-05-02T22:04:34.822Z,34.63
2019-05-02T22:09:41.648Z,35.05
2019-05-02T22:14:46.991Z,35.17
2019-05-02T22:19:52.601Z,33.33
2019-05-02T22:24:58.112Z,33.20
2019-05-02T22:30:03.346Z,31.00
2019-05-02T22:35:08.634Z,28.63
2019-05-02T22:40:15.165Z,27.70
2019-05-02T22:45:21.802Z,27.30
2019-05-02T22:50:27.042Z,27.87
2019-05-02T22:55:32.202Z,27.60
2019-05-02T23:00:37.248Z,27.13
2019-05-02T23:05:43.468Z,27.25
2019-05-02T23:10:48.896Z,32.83
2019-05-02T23:15:54.356Z,26.55
2019-05-02T23:20:59.410Z,28.02
2019-05-02T23:26:17.006Z,32.53
2019-05-02T23:31:22.578Z,26.10
2019-05-02T23:36:29.342Z,26.27
2019-05-02T23:41:35.744Z,25.63
2019-05-02T23:46:42.441Z,24.57
2019-05-02T23:51:48.013Z,26.37
2019-05-02T23:56:53.132Z,25.15
